sensor_id;sensor_type;location;lat;lon;timestamp;P1;durP1;ratioP1;P2;durP2;ratioP2
20511;SDS011;10414;52.074;5.126;2023-08-31T00:00:43;6.82;;;2.75;;
20511;SDS011;10414;52.074;5.126;2023-08-31T00:03:10;10.18;;;2.90;;
20511;SDS011;10414;52.074;5.126;2023-08-31T00:05:39;6.35;;;2.55;;
20511;SDS011;10414;52.074;5.126;2023-08-31T00:08:07;9.95;;;2.75;;
20511;SDS011;10414;52.074;5.126;2023-08-31T00:10:34;7.90;;;2.75;;
20511;SDS011;10414;52.074;5.126;2023-08-31T00:13:02;10.90;;;2.90;;
20511;SDS011;10414;52.074;5.126;2023-08-31T00:15:34;13.35;;;3.05;;
20511;SDS011;10414;52.074;5.126;2023-08-31T00:18:02;7.68;;;2.75;;
20511;SDS011;10414;52.074;5.126;2023-08-31T00:20:29;6.78;;;2.63;;
20511;SDS011;10414;52.074;5.126;2023-08-31T00:22:58;6.40;;;2.67;;
20511;SDS011;10414;52.074;5.126;2023-08-31T00:25:25;9.32;;;2.95;;
20511;SDS011;10414;52.074;5.126;2023-08-31T00:27:53;9.20;;;3.25;;
20511;SDS011;10414;52.074;5.126;2023-08-31T00:30:21;7.22;;;3.00;;
20511;SDS011;10414;52.074;5.126;2023-08-31T00:32:51;7.40;;;3.05;;
20511;SDS011;10414;52.074;5.126;2023-08-31T00:35:20;9.60;;;3.50;;
20511;SDS011;10414;52.074;5.126;2023-08-31T00:37:49;8.05;;;3.15;;
20511;SDS011;10414;52.074;5.126;2023-08-31T00:40:25;7.25;;;2.90;;
20511;SDS011;10414;52.074;5.126;2023-08-31T00:42:56;8.52;;;2.72;;
20511;SDS011;10414;52.074;5.126;2023-08-31T00:45:24;6.95;;;3.03;;
20511;SDS011;10414;52.074;5.126;2023-08-31T00:47:54;8.25;;;3.80;;
20511;SDS011;10414;52.074;5.126;2023-08-31T00:50:22;9.10;;;3.25;;
20511;SDS011;10414;52.074;5.126;2023-08-31T00:52:49;8.75;;;3.33;;
20511;SDS011;10414;52.074;5.126;2023-08-31T00:55:17;7.00;;;2.80;;
20511;SDS011;10414;52.074;5.126;2023-08-31T00:57:44;13.05;;;3.35;;
20511;SDS011;10414;52.074;5.126;2023-08-31T01:00:15;7.68;;;3.08;;
20511;SDS011;10414;52.074;5.126;2023-08-31T01:02:46;6.63;;;3.22;;
20511;SDS011;10414;52.074;5.126;2023-08-31T01:05:25;9.35;;;2.90;;
20511;SDS011;10414;52.074;5.126;2023-08-31T01:08:02;9.75;;;3.17;;
20511;SDS011;10414;52.074;5.126;2023-08-31T01:10:37;8.02;;;3.38;;
20511;SDS011;10414;52.074;5.126;2023-08-31T01:13:11;6.72;;;3.33;;
20511;SDS011;10414;52.074;5.126;2023-08-31T01:15:41;10.13;;;3.63;;
20511;SDS011;10414;52.074;5.126;2023-08-31T01:18:16;7.93;;;4.15;;
20511;SDS011;10414;52.074;5.126;2023-08-31T01:20:45;6.68;;;3.47;;
20511;SDS011;10414;52.074;5.126;2023-08-31T01:23:25;8.80;;;3.75;;
20511;SDS011;10414;52.074;5.126;2023-08-31T01:25:58;14.30;;;4.10;;
20511;SDS011;10414;52.074;5.126;2023-08-31T01:28:25;8.65;;;3.92;;
20511;SDS011;10414;52.074;5.126;2023-08-31T01:30:52;8.32;;;3.63;;
20511;SDS011;10414;52.074;5.126;2023-08-31T01:33:19;10.07;;;4.38;;
20511;SDS011;10414;52.074;5.126;2023-08-31T01:35:46;7.85;;;4.10;;
20511;SDS011;10414;52.074;5.126;2023-08-31T01:38:18;10.88;;;4.45;;
20511;SDS011;10414;52.074;5.126;2023-08-31T01:40:53;9.15;;;4.57;;
20511;SDS011;10414;52.074;5.126;2023-08-31T01:43:29;10.80;;;4.00;;
20511;SDS011;10414;52.074;5.126;2023-08-31T01:45:58;7.57;;;3.72;;
20511;SDS011;10414;52.074;5.126;2023-08-31T01:48:26;7.47;;;4.07;;
20511;SDS011;10414;52.074;5.126;2023-08-31T01:50:53;10.55;;;4.05;;
20511;SDS011;10414;52.074;5.126;2023-08-31T01:53:20;10.13;;;3.58;;
20511;SDS011;10414;52.074;5.126;2023-08-31T01:55:47;6.47;;;3.60;;
20511;SDS011;10414;52.074;5.126;2023-08-31T01:58:14;6.82;;;3.65;;
20511;SDS011;10414;52.074;5.126;2023-08-31T02:00:42;6.60;;;3.00;;
20511;SDS011;10414;52.074;5.126;2023-08-31T02:03:12;5.53;;;2.63;;
20511;SDS011;10414;52.074;5.126;2023-08-31T02:05:39;6.40;;;2.45;;
20511;SDS011;10414;52.074;5.126;2023-08-31T02:08:06;4.97;;;2.50;;
20511;SDS011;10414;52.074;5.126;2023-08-31T02:10:33;5.45;;;2.20;;
20511;SDS011;10414;52.074;5.126;2023-08-31T02:13:00;6.43;;;2.25;;
20511;SDS011;10414;52.074;5.126;2023-08-31T02:15:26;4.88;;;1.88;;
20511;SDS011;10414;52.074;5.126;2023-08-31T02:17:55;4.25;;;1.77;;
20511;SDS011;10414;52.074;5.126;2023-08-31T02:20:21;3.55;;;1.60;;
20511;SDS011;10414;52.074;5.126;2023-08-31T02:22:49;4.30;;;1.85;;
20511;SDS011;10414;52.074;5.126;2023-08-31T02:25:16;5.00;;;2.03;;
20511;SDS011;10414;52.074;5.126;2023-08-31T02:27:43;5.07;;;1.90;;
20511;SDS011;10414;52.074;5.126;2023-08-31T02:30:09;7.70;;;2.10;;
20511;SDS011;10414;52.074;5.126;2023-08-31T02:32:37;5.80;;;2.00;;
20511;SDS011;10414;52.074;5.126;2023-08-31T02:35:05;5.32;;;1.92;;
20511;SDS011;10414;52.074;5.126;2023-08-31T02:37:37;4.55;;;1.80;;
20511;SDS011;10414;52.074;5.126;2023-08-31T02:40:05;5.40;;;2.25;;
20511;SDS011;10414;52.074;5.126;2023-08-31T02:42:33;5.38;;;2.00;;
20511;SDS011;10414;52.074;5.126;2023-08-31T02:45:00;4.13;;;1.90;;
20511;SDS011;10414;52.074;5.126;2023-08-31T02:47:28;4.05;;;1.60;;
20511;SDS011;10414;52.074;5.126;2023-08-31T02:49:54;4.93;;;1.70;;
20511;SDS011;10414;52.074;5.126;2023-08-31T02:52:23;3.47;;;1.42;;
20511;SDS011;10414;52.074;5.126;2023-08-31T02:54:49;5.32;;;1.55;;
20511;SDS011;10414;52.074;5.126;2023-08-31T02:57:16;4.20;;;1.50;;
20511;SDS011;10414;52.074;5.126;2023-08-31T02:59:44;4.00;;;1.50;;
20511;SDS011;10414;52.074;5.126;2023-08-31T03:02:11;3.88;;;1.40;;
20511;SDS011;10414;52.074;5.126;2023-08-31T03:04:40;4.00;;;1.50;;
20511;SDS011;10414;52.074;5.126;2023-08-31T03:07:07;4.38;;;1.30;;
20511;SDS011;10414;52.074;5.126;2023-08-31T03:09:35;3.30;;;1.30;;
20511;SDS011;10414;52.074;5.126;2023-08-31T03:12:04;2.95;;;1.10;;
20511;SDS011;10414;52.074;5.126;2023-08-31T03:14:31;4.25;;;1.23;;
20511;SDS011;10414;52.074;5.126;2023-08-31T03:16:59;3.25;;;1.27;;
20511;SDS011;10414;52.074;5.126;2023-08-31T03:19:26;3.42;;;1.20;;
20511;SDS011;10414;52.074;5.126;2023-08-31T03:21:53;4.35;;;1.40;;
20511;SDS011;10414;52.074;5.126;2023-08-31T03:24:20;3.63;;;1.30;;
20511;SDS011;10414;52.074;5.126;2023-08-31T03:26:49;4.85;;;1.45;;
20511;SDS011;10414;52.074;5.126;2023-08-31T03:29:18;3.72;;;1.65;;
20511;SDS011;10414;52.074;5.126;2023-08-31T03:31:47;4.20;;;1.77;;
20511;SDS011;10414;52.074;5.126;2023-08-31T03:34:14;5.05;;;2.10;;
20511;SDS011;10414;52.074;5.126;2023-08-31T03:36:41;5.38;;;2.30;;
20511;SDS011;10414;52.074;5.126;2023-08-31T03:39:07;6.05;;;3.00;;
20511;SDS011;10414;52.074;5.126;2023-08-31T03:41:35;14.65;;;3.58;;
20511;SDS011;10414;52.074;5.126;2023-08-31T03:44:04;7.78;;;3.65;;
20511;SDS011;10414;52.074;5.126;2023-08-31T03:46:32;7.57;;;3.80;;
20511;SDS011;10414;52.074;5.126;2023-08-31T03:49:00;11.60;;;4.55;;
20511;SDS011;10414;52.074;5.126;2023-08-31T03:51:29;6.20;;;3.78;;
20511;SDS011;10414;52.074;5.126;2023-08-31T03:53:56;11.52;;;5.00;;
20511;SDS011;10414;52.074;5.126;2023-08-31T03:56:23;9.15;;;5.03;;
20511;SDS011;10414;52.074;5.126;2023-08-31T03:58:50;13.40;;;6.00;;
20511;SDS011;10414;52.074;5.126;2023-08-31T04:01:18;13.68;;;6.60;;
20511;SDS011;10414;52.074;5.126;2023-08-31T04:03:45;10.10;;;6.60;;
20511;SDS011;10414;52.074;5.126;2023-08-31T04:06:12;16.20;;;6.72;;
20511;SDS011;10414;52.074;5.126;2023-08-31T04:08:39;12.30;;;7.57;;
20511;SDS011;10414;52.074;5.126;2023-08-31T04:11:05;11.52;;;7.60;;
20511;SDS011;10414;52.074;5.126;2023-08-31T04:13:32;14.48;;;7.15;;
20511;SDS011;10414;52.074;5.126;2023-08-31T04:15:59;13.73;;;7.05;;
20511;SDS011;10414;52.074;5.126;2023-08-31T04:18:27;13.80;;;6.60;;
20511;SDS011;10414;52.074;5.126;2023-08-31T04:20:54;11.75;;;6.57;;
20511;SDS011;10414;52.074;5.126;2023-08-31T04:23:24;10.57;;;5.80;;
20511;SDS011;10414;52.074;5.126;2023-08-31T04:25:54;12.57;;;6.85;;
20511;SDS011;10414;52.074;5.126;2023-08-31T04:28:22;12.32;;;7.43;;
20511;SDS011;10414;52.074;5.126;2023-08-31T04:30:50;13.15;;;6.97;;
20511;SDS011;10414;52.074;5.126;2023-08-31T04:33:18;10.90;;;7.13;;
20511;SDS011;10414;52.074;5.126;2023-08-31T04:35:50;11.77;;;6.70;;
20511;SDS011;10414;52.074;5.126;2023-08-31T04:38:17;14.40;;;7.85;;
20511;SDS011;10414;52.074;5.126;2023-08-31T04:40:44;13.48;;;7.72;;
20511;SDS011;10414;52.074;5.126;2023-08-31T04:43:15;18.30;;;8.13;;
20511;SDS011;10414;52.074;5.126;2023-08-31T04:45:46;16.23;;;8.85;;
20511;SDS011;10414;52.074;5.126;2023-08-31T04:48:13;13.63;;;7.57;;
20511;SDS011;10414;52.074;5.126;2023-08-31T04:50:40;19.83;;;9.18;;
20511;SDS011;10414;52.074;5.126;2023-08-31T04:53:09;15.52;;;7.57;;
20511;SDS011;10414;52.074;5.126;2023-08-31T04:55:35;13.65;;;7.22;;
20511;SDS011;10414;52.074;5.126;2023-08-31T04:58:05;12.15;;;5.38;;
20511;SDS011;10414;52.074;5.126;2023-08-31T05:00:32;10.98;;;4.80;;
20511;SDS011;10414;52.074;5.126;2023-08-31T05:02:59;6.10;;;2.95;;
20511;SDS011;10414;52.074;5.126;2023-08-31T05:05:28;8.57;;;3.47;;
20511;SDS011;10414;52.074;5.126;2023-08-31T05:07:55;9.32;;;3.40;;
20511;SDS011;10414;52.074;5.126;2023-08-31T05:10:23;8.23;;;3.67;;
20511;SDS011;10414;52.074;5.126;2023-08-31T05:12:53;8.32;;;4.20;;
20511;SDS011;10414;52.074;5.126;2023-08-31T05:15:21;8.52;;;4.18;;
20511;SDS011;10414;52.074;5.126;2023-08-31T05:17:52;10.90;;;5.03;;
20511;SDS011;10414;52.074;5.126;2023-08-31T05:20:19;13.20;;;5.90;;
20511;SDS011;10414;52.074;5.126;2023-08-31T05:22:47;13.73;;;6.38;;
20511;SDS011;10414;52.074;5.126;2023-08-31T05:25:16;14.47;;;7.00;;
20511;SDS011;10414;52.074;5.126;2023-08-31T05:27:45;13.40;;;7.40;;
20511;SDS011;10414;52.074;5.126;2023-08-31T05:30:12;13.48;;;7.95;;
20511;SDS011;10414;52.074;5.126;2023-08-31T05:32:39;13.57;;;8.57;;
20511;SDS011;10414;52.074;5.126;2023-08-31T05:35:06;16.20;;;9.45;;
20511;SDS011;10414;52.074;5.126;2023-08-31T05:37:34;15.48;;;9.93;;
20511;SDS011;10414;52.074;5.126;2023-08-31T05:40:02;13.38;;;9.43;;
20511;SDS011;10414;52.074;5.126;2023-08-31T05:42:35;17.63;;;9.18;;
20511;SDS011;10414;52.074;5.126;2023-08-31T05:45:04;13.73;;;8.80;;
20511;SDS011;10414;52.074;5.126;2023-08-31T05:47:31;11.60;;;7.55;;
20511;SDS011;10414;52.074;5.126;2023-08-31T05:50:00;12.82;;;7.43;;
20511;SDS011;10414;52.074;5.126;2023-08-31T05:52:28;14.52;;;7.32;;
20511;SDS011;10414;52.074;5.126;2023-08-31T05:54:54;11.73;;;6.78;;
20511;SDS011;10414;52.074;5.126;2023-08-31T05:57:21;11.07;;;6.47;;
20511;SDS011;10414;52.074;5.126;2023-08-31T05:59:48;14.40;;;7.32;;
20511;SDS011;10414;52.074;5.126;2023-08-31T06:02:16;12.30;;;6.28;;
20511;SDS011;10414;52.074;5.126;2023-08-31T06:04:53;12.05;;;6.20;;
20511;SDS011;10414;52.074;5.126;2023-08-31T06:07:20;12.63;;;6.95;;
20511;SDS011;10414;52.074;5.126;2023-08-31T06:09:46;11.88;;;6.72;;
20511;SDS011;10414;52.074;5.126;2023-08-31T06:12:14;11.02;;;6.28;;
20511;SDS011;10414;52.074;5.126;2023-08-31T06:14:40;11.52;;;5.95;;
20511;SDS011;10414;52.074;5.126;2023-08-31T06:17:07;11.00;;;5.70;;
20511;SDS011;10414;52.074;5.126;2023-08-31T06:22:06;9.55;;;4.97;;
20511;SDS011;10414;52.074;5.126;2023-08-31T06:24:33;10.13;;;5.03;;
20511;SDS011;10414;52.074;5.126;2023-08-31T06:27:01;10.02;;;4.78;;
20511;SDS011;10414;52.074;5.126;2023-08-31T06:29:31;9.02;;;4.70;;
20511;SDS011;10414;52.074;5.126;2023-08-31T06:31:58;10.50;;;4.85;;
20511;SDS011;10414;52.074;5.126;2023-08-31T06:34:25;8.13;;;4.07;;
20511;SDS011;10414;52.074;5.126;2023-08-31T06:36:53;12.70;;;4.75;;
20511;SDS011;10414;52.074;5.126;2023-08-31T06:39:19;9.35;;;3.65;;
20511;SDS011;10414;52.074;5.126;2023-08-31T06:41:46;9.20;;;3.90;;
20511;SDS011;10414;52.074;5.126;2023-08-31T06:44:14;9.10;;;3.63;;
20511;SDS011;10414;52.074;5.126;2023-08-31T06:46:42;6.78;;;3.30;;
20511;SDS011;10414;52.074;5.126;2023-08-31T06:49:08;6.00;;;3.22;;
20511;SDS011;10414;52.074;5.126;2023-08-31T06:51:35;9.48;;;3.80;;
20511;SDS011;10414;52.074;5.126;2023-08-31T06:54:04;7.95;;;3.30;;
20511;SDS011;10414;52.074;5.126;2023-08-31T06:56:31;7.45;;;2.97;;
20511;SDS011;10414;52.074;5.126;2023-08-31T06:58:59;9.90;;;3.05;;
20511;SDS011;10414;52.074;5.126;2023-08-31T07:01:26;9.57;;;3.45;;
20511;SDS011;10414;52.074;5.126;2023-08-31T07:03:53;7.20;;;3.20;;
20511;SDS011;10414;52.074;5.126;2023-08-31T07:06:20;8.93;;;3.50;;
20511;SDS011;10414;52.074;5.126;2023-08-31T07:08:49;6.53;;;3.13;;
20511;SDS011;10414;52.074;5.126;2023-08-31T07:11:20;7.57;;;3.28;;
20511;SDS011;10414;52.074;5.126;2023-08-31T07:16:17;7.55;;;2.83;;
20511;SDS011;10414;52.074;5.126;2023-08-31T07:18:43;8.35;;;2.95;;
20511;SDS011;10414;52.074;5.126;2023-08-31T07:21:10;5.97;;;2.78;;
20511;SDS011;10414;52.074;5.126;2023-08-31T07:23:37;8.73;;;2.60;;
20511;SDS011;10414;52.074;5.126;2023-08-31T07:26:04;5.80;;;2.40;;
20511;SDS011;10414;52.074;5.126;2023-08-31T07:28:32;9.10;;;2.58;;
20511;SDS011;10414;52.074;5.126;2023-08-31T07:31:02;8.30;;;2.42;;
20511;SDS011;10414;52.074;5.126;2023-08-31T07:35:57;6.18;;;1.92;;
20511;SDS011;10414;52.074;5.126;2023-08-31T07:38:24;6.47;;;2.40;;
20511;SDS011;10414;52.074;5.126;2023-08-31T07:40:52;6.32;;;2.40;;
20511;SDS011;10414;52.074;5.126;2023-08-31T07:43:18;5.18;;;2.58;;
20511;SDS011;10414;52.074;5.126;2023-08-31T07:45:47;7.22;;;2.42;;
20511;SDS011;10414;52.074;5.126;2023-08-31T07:48:18;6.88;;;2.50;;
20511;SDS011;10414;52.074;5.126;2023-08-31T07:50:47;8.75;;;3.38;;
20511;SDS011;10414;52.074;5.126;2023-08-31T07:53:14;7.63;;;3.20;;
20511;SDS011;10414;52.074;5.126;2023-08-31T07:55:50;8.55;;;3.17;;
20511;SDS011;10414;52.074;5.126;2023-08-31T07:58:19;7.15;;;3.15;;
20511;SDS011;10414;52.074;5.126;2023-08-31T08:00:47;7.75;;;3.22;;
20511;SDS011;10414;52.074;5.126;2023-08-31T08:03:14;5.30;;;2.80;;
20511;SDS011;10414;52.074;5.126;2023-08-31T08:05:41;6.28;;;2.88;;
20511;SDS011;10414;52.074;5.126;2023-08-31T08:08:08;5.47;;;2.30;;
20511;SDS011;10414;52.074;5.126;2023-08-31T08:10:35;6.35;;;2.10;;
20511;SDS011;10414;52.074;5.126;2023-08-31T08:13:02;7.82;;;2.63;;
20511;SDS011;10414;52.074;5.126;2023-08-31T08:15:32;6.18;;;2.60;;
20511;SDS011;10414;52.074;5.126;2023-08-31T08:18:00;7.05;;;2.70;;
20511;SDS011;10414;52.074;5.126;2023-08-31T08:20:29;5.85;;;2.80;;
20511;SDS011;10414;52.074;5.126;2023-08-31T08:23:00;7.00;;;2.72;;
20511;SDS011;10414;52.074;5.126;2023-08-31T08:25:26;7.47;;;2.83;;
20511;SDS011;10414;52.074;5.126;2023-08-31T08:27:53;5.78;;;2.45;;
20511;SDS011;10414;52.074;5.126;2023-08-31T08:30:20;5.53;;;2.17;;
20511;SDS011;10414;52.074;5.126;2023-08-31T08:32:47;8.27;;;2.50;;
20511;SDS011;10414;52.074;5.126;2023-08-31T08:35:15;5.47;;;2.25;;
20511;SDS011;10414;52.074;5.126;2023-08-31T08:37:42;6.20;;;2.03;;
20511;SDS011;10414;52.074;5.126;2023-08-31T08:40:11;5.25;;;2.67;;
20511;SDS011;10414;52.074;5.126;2023-08-31T08:42:40;7.22;;;1.88;;
20511;SDS011;10414;52.074;5.126;2023-08-31T08:45:08;5.65;;;1.83;;
20511;SDS011;10414;52.074;5.126;2023-08-31T08:47:41;6.03;;;1.60;;
20511;SDS011;10414;52.074;5.126;2023-08-31T08:50:09;8.02;;;1.30;;
20511;SDS011;10414;52.074;5.126;2023-08-31T08:52:39;5.40;;;1.50;;
20511;SDS011;10414;52.074;5.126;2023-08-31T08:55:07;3.30;;;0.95;;
20511;SDS011;10414;52.074;5.126;2023-08-31T08:57:34;6.13;;;1.70;;
20511;SDS011;10414;52.074;5.126;2023-08-31T09:00:02;5.65;;;1.33;;
20511;SDS011;10414;52.074;5.126;2023-08-31T09:02:30;5.03;;;1.00;;
20511;SDS011;10414;52.074;5.126;2023-08-31T09:04:56;6.15;;;1.30;;
20511;SDS011;10414;52.074;5.126;2023-08-31T09:07:24;3.78;;;1.02;;
20511;SDS011;10414;52.074;5.126;2023-08-31T09:09:56;4.57;;;1.00;;
20511;SDS011;10414;52.074;5.126;2023-08-31T09:12:26;3.40;;;1.00;;
20511;SDS011;10414;52.074;5.126;2023-08-31T09:14:57;7.72;;;1.38;;
20511;SDS011;10414;52.074;5.126;2023-08-31T09:17:37;5.28;;;1.02;;
20511;SDS011;10414;52.074;5.126;2023-08-31T09:20:05;5.22;;;1.15;;
20511;SDS011;10414;52.074;5.126;2023-08-31T09:22:34;6.60;;;1.00;;
20511;SDS011;10414;52.074;5.126;2023-08-31T09:25:05;6.82;;;1.15;;
20511;SDS011;10414;52.074;5.126;2023-08-31T09:27:36;5.88;;;1.10;;
20511;SDS011;10414;52.074;5.126;2023-08-31T09:32:35;3.67;;;1.00;;
20511;SDS011;10414;52.074;5.126;2023-08-31T09:35:02;3.50;;;0.88;;
20511;SDS011;10414;52.074;5.126;2023-08-31T09:37:30;5.03;;;1.17;;
20511;SDS011;10414;52.074;5.126;2023-08-31T09:39:59;3.17;;;1.08;;
20511;SDS011;10414;52.074;5.126;2023-08-31T09:42:35;4.22;;;0.90;;
20511;SDS011;10414;52.074;5.126;2023-08-31T09:45:06;4.18;;;0.90;;
20511;SDS011;10414;52.074;5.126;2023-08-31T09:47:34;2.97;;;0.90;;
20511;SDS011;10414;52.074;5.126;2023-08-31T09:50:04;3.38;;;0.82;;
20511;SDS011;10414;52.074;5.126;2023-08-31T09:52:34;3.40;;;0.80;;
20511;SDS011;10414;52.074;5.126;2023-08-31T09:55:05;4.70;;;0.90;;
20511;SDS011;10414;52.074;5.126;2023-08-31T09:57:33;3.78;;;1.00;;
20511;SDS011;10414;52.074;5.126;2023-08-31T10:00:03;6.72;;;0.90;;
20511;SDS011;10414;52.074;5.126;2023-08-31T10:02:32;4.82;;;1.05;;
20511;SDS011;10414;52.074;5.126;2023-08-31T10:04:59;4.28;;;1.13;;
20511;SDS011;10414;52.074;5.126;2023-08-31T10:07:26;3.53;;;1.00;;
20511;SDS011;10414;52.074;5.126;2023-08-31T10:09:53;4.07;;;0.90;;
20511;SDS011;10414;52.074;5.126;2023-08-31T10:12:24;3.88;;;1.00;;
20511;SDS011;10414;52.074;5.126;2023-08-31T10:17:21;3.75;;;0.90;;
20511;SDS011;10414;52.074;5.126;2023-08-31T10:19:53;3.42;;;0.80;;
20511;SDS011;10414;52.074;5.126;2023-08-31T10:22:24;2.55;;;0.70;;
20511;SDS011;10414;52.074;5.126;2023-08-31T10:24:59;5.10;;;1.00;;
20511;SDS011;10414;52.074;5.126;2023-08-31T10:27:32;3.20;;;0.88;;
20511;SDS011;10414;52.074;5.126;2023-08-31T10:30:12;3.55;;;0.90;;
20511;SDS011;10414;52.074;5.126;2023-08-31T10:35:50;3.25;;;0.80;;
20511;SDS011;10414;52.074;5.126;2023-08-31T10:38:25;4.47;;;0.93;;
20511;SDS011;10414;52.074;5.126;2023-08-31T10:41:00;4.45;;;0.95;;
20511;SDS011;10414;52.074;5.126;2023-08-31T10:43:46;4.60;;;1.10;;
20511;SDS011;10414;52.074;5.126;2023-08-31T10:46:20;3.53;;;0.75;;
20511;SDS011;10414;52.074;5.126;2023-08-31T10:48:52;3.95;;;0.80;;
20511;SDS011;10414;52.074;5.126;2023-08-31T10:51:24;2.65;;;0.70;;
20511;SDS011;10414;52.074;5.126;2023-08-31T10:53:52;5.88;;;0.90;;
20511;SDS011;10414;52.074;5.126;2023-08-31T10:56:29;3.10;;;0.90;;
20511;SDS011;10414;52.074;5.126;2023-08-31T10:58:59;4.50;;;1.00;;
20511;SDS011;10414;52.074;5.126;2023-08-31T11:04:23;5.47;;;1.00;;
20511;SDS011;10414;52.074;5.126;2023-08-31T11:07:12;3.58;;;0.90;;
20511;SDS011;10414;52.074;5.126;2023-08-31T11:09:40;6.10;;;1.05;;
20511;SDS011;10414;52.074;5.126;2023-08-31T11:12:08;2.95;;;0.70;;
20511;SDS011;10414;52.074;5.126;2023-08-31T11:14:36;3.42;;;0.80;;
20511;SDS011;10414;52.074;5.126;2023-08-31T11:17:04;2.42;;;0.80;;
20511;SDS011;10414;52.074;5.126;2023-08-31T11:19:31;3.42;;;0.82;;
20511;SDS011;10414;52.074;5.126;2023-08-31T11:21:58;2.42;;;0.70;;
20511;SDS011;10414;52.074;5.126;2023-08-31T11:24:26;3.35;;;0.80;;
20511;SDS011;10414;52.074;5.126;2023-08-31T11:26:53;2.97;;;0.80;;
20511;SDS011;10414;52.074;5.126;2023-08-31T11:29:20;2.92;;;0.80;;
20511;SDS011;10414;52.074;5.126;2023-08-31T11:31:49;4.65;;;0.93;;
20511;SDS011;10414;52.074;5.126;2023-08-31T11:34:16;5.00;;;1.20;;
20511;SDS011;10414;52.074;5.126;2023-08-31T11:36:44;2.80;;;0.80;;
20511;SDS011;10414;52.074;5.126;2023-08-31T11:39:13;2.55;;;0.70;;
20511;SDS011;10414;52.074;5.126;2023-08-31T11:41:40;6.15;;;0.80;;
20511;SDS011;10414;52.074;5.126;2023-08-31T11:44:09;2.80;;;0.80;;
20511;SDS011;10414;52.074;5.126;2023-08-31T11:46:36;5.20;;;0.90;;
20511;SDS011;10414;52.074;5.126;2023-08-31T11:49:05;2.58;;;0.85;;
20511;SDS011;10414;52.074;5.126;2023-08-31T11:51:33;6.45;;;0.93;;
20511;SDS011;10414;52.074;5.126;2023-08-31T11:54:03;3.47;;;0.88;;
20511;SDS011;10414;52.074;5.126;2023-08-31T11:56:40;2.50;;;0.88;;
20511;SDS011;10414;52.074;5.126;2023-08-31T11:59:08;4.07;;;0.93;;
20511;SDS011;10414;52.074;5.126;2023-08-31T12:01:40;4.43;;;0.93;;
20511;SDS011;10414;52.074;5.126;2023-08-31T12:04:14;3.53;;;0.90;;
20511;SDS011;10414;52.074;5.126;2023-08-31T12:06:44;4.05;;;1.00;;
20511;SDS011;10414;52.074;5.126;2023-08-31T12:09:13;5.47;;;1.05;;
20511;SDS011;10414;52.074;5.126;2023-08-31T12:11:40;3.80;;;0.93;;
20511;SDS011;10414;52.074;5.126;2023-08-31T12:14:17;3.35;;;0.88;;
20511;SDS011;10414;52.074;5.126;2023-08-31T12:16:45;3.78;;;1.00;;
20511;SDS011;10414;52.074;5.126;2023-08-31T12:19:15;2.50;;;0.98;;
20511;SDS011;10414;52.074;5.126;2023-08-31T12:21:42;3.03;;;0.85;;
20511;SDS011;10414;52.074;5.126;2023-08-31T12:24:11;3.47;;;0.93;;
20511;SDS011;10414;52.074;5.126;2023-08-31T12:26:38;3.38;;;1.00;;
20511;SDS011;10414;52.074;5.126;2023-08-31T12:29:06;5.32;;;0.90;;
20511;SDS011;10414;52.074;5.126;2023-08-31T12:31:33;2.88;;;0.88;;
20511;SDS011;10414;52.074;5.126;2023-08-31T12:34:00;5.15;;;1.10;;
20511;SDS011;10414;52.074;5.126;2023-08-31T12:36:32;2.80;;;0.85;;
20511;SDS011;10414;52.074;5.126;2023-08-31T12:39:03;5.78;;;0.80;;
20511;SDS011;10414;52.074;5.126;2023-08-31T12:41:34;3.15;;;0.90;;
20511;SDS011;10414;52.074;5.126;2023-08-31T12:44:06;3.88;;;0.80;;
20511;SDS011;10414;52.074;5.126;2023-08-31T12:46:34;7.13;;;1.00;;
20511;SDS011;10414;52.074;5.126;2023-08-31T12:49:01;5.30;;;0.90;;
20511;SDS011;10414;52.074;5.126;2023-08-31T12:51:29;4.40;;;0.95;;
20511;SDS011;10414;52.074;5.126;2023-08-31T12:53:57;2.97;;;0.90;;
20511;SDS011;10414;52.074;5.126;2023-08-31T12:56:24;3.20;;;0.75;;
20511;SDS011;10414;52.074;5.126;2023-08-31T12:58:52;2.67;;;0.80;;
20511;SDS011;10414;52.074;5.126;2023-08-31T13:01:20;3.58;;;1.00;;
20511;SDS011;10414;52.074;5.126;2023-08-31T13:03:48;4.13;;;1.00;;
20511;SDS011;10414;52.074;5.126;2023-08-31T13:06:15;3.97;;;0.80;;
20511;SDS011;10414;52.074;5.126;2023-08-31T13:08:42;4.18;;;0.90;;
20511;SDS011;10414;52.074;5.126;2023-08-31T13:11:11;2.80;;;0.98;;
20511;SDS011;10414;52.074;5.126;2023-08-31T13:13:38;3.47;;;0.90;;
20511;SDS011;10414;52.074;5.126;2023-08-31T13:16:05;3.45;;;0.95;;
20511;SDS011;10414;52.074;5.126;2023-08-31T13:18:34;3.47;;;1.02;;
20511;SDS011;10414;52.074;5.126;2023-08-31T13:21:01;2.67;;;0.80;;
20511;SDS011;10414;52.074;5.126;2023-08-31T13:23:28;4.50;;;1.00;;
20511;SDS011;10414;52.074;5.126;2023-08-31T13:25:55;3.10;;;0.90;;
20511;SDS011;10414;52.074;5.126;2023-08-31T13:28:23;6.30;;;0.98;;
20511;SDS011;10414;52.074;5.126;2023-08-31T13:30:54;3.15;;;1.00;;
20511;SDS011;10414;52.074;5.126;2023-08-31T13:33:25;5.82;;;1.08;;
20511;SDS011;10414;52.074;5.126;2023-08-31T13:35:53;4.68;;;0.90;;
20511;SDS011;10414;52.074;5.126;2023-08-31T13:38:23;2.75;;;0.80;;
20511;SDS011;10414;52.074;5.126;2023-08-31T13:40:53;2.90;;;0.90;;
20511;SDS011;10414;52.074;5.126;2023-08-31T13:43:25;2.45;;;0.70;;
20511;SDS011;10414;52.074;5.126;2023-08-31T13:45:52;3.53;;;0.90;;
20511;SDS011;10414;52.074;5.126;2023-08-31T13:48:19;4.88;;;0.90;;
20511;SDS011;10414;52.074;5.126;2023-08-31T13:50:50;3.85;;;0.95;;
20511;SDS011;10414;52.074;5.126;2023-08-31T13:53:17;3.92;;;1.05;;
20511;SDS011;10414;52.074;5.126;2023-08-31T13:55:44;4.28;;;1.20;;
20511;SDS011;10414;52.074;5.126;2023-08-31T13:58:14;6.40;;;0.80;;
20511;SDS011;10414;52.074;5.126;2023-08-31T14:00:42;4.70;;;0.80;;
20511;SDS011;10414;52.074;5.126;2023-08-31T14:03:09;5.10;;;1.00;;
20511;SDS011;10414;52.074;5.126;2023-08-31T14:05:36;2.83;;;0.82;;
20511;SDS011;10414;52.074;5.126;2023-08-31T14:08:03;6.20;;;1.20;;
20511;SDS011;10414;52.074;5.126;2023-08-31T14:10:30;2.80;;;0.90;;
20511;SDS011;10414;52.074;5.126;2023-08-31T14:12:58;5.45;;;1.20;;
20511;SDS011;10414;52.074;5.126;2023-08-31T14:15:25;3.50;;;1.15;;
20511;SDS011;10414;52.074;5.126;2023-08-31T14:17:54;3.22;;;1.00;;
20511;SDS011;10414;52.074;5.126;2023-08-31T14:20:21;3.95;;;1.05;;
20511;SDS011;10414;52.074;5.126;2023-08-31T14:22:48;4.22;;;1.13;;
20511;SDS011;10414;52.074;5.126;2023-08-31T14:25:17;5.93;;;1.10;;
20511;SDS011;10414;52.074;5.126;2023-08-31T14:27:47;3.90;;;1.10;;
20511;SDS011;10414;52.074;5.126;2023-08-31T14:30:14;4.57;;;1.00;;
20511;SDS011;10414;52.074;5.126;2023-08-31T14:32:41;6.32;;;1.20;;
20511;SDS011;10414;52.074;5.126;2023-08-31T14:35:09;3.70;;;1.05;;
20511;SDS011;10414;52.074;5.126;2023-08-31T14:37:36;3.50;;;1.20;;
20511;SDS011;10414;52.074;5.126;2023-08-31T14:40:03;7.45;;;1.17;;
20511;SDS011;10414;52.074;5.126;2023-08-31T14:42:33;6.13;;;0.98;;
20511;SDS011;10414;52.074;5.126;2023-08-31T14:45:00;5.43;;;1.20;;
20511;SDS011;10414;52.074;5.126;2023-08-31T14:47:30;3.30;;;0.90;;
20511;SDS011;10414;52.074;5.126;2023-08-31T14:49:57;5.80;;;1.27;;
20511;SDS011;10414;52.074;5.126;2023-08-31T14:52:25;2.42;;;0.93;;
20511;SDS011;10414;52.074;5.126;2023-08-31T14:54:52;4.43;;;1.17;;
20511;SDS011;10414;52.074;5.126;2023-08-31T14:57:19;4.88;;;1.30;;
20511;SDS011;10414;52.074;5.126;2023-08-31T14:59:46;3.15;;;0.90;;
20511;SDS011;10414;52.074;5.126;2023-08-31T15:02:15;3.63;;;1.20;;
20511;SDS011;10414;52.074;5.126;2023-08-31T15:04:48;4.05;;;1.20;;
20511;SDS011;10414;52.074;5.126;2023-08-31T15:07:15;5.57;;;1.17;;
20511;SDS011;10414;52.074;5.126;2023-08-31T15:09:45;6.35;;;1.00;;
20511;SDS011;10414;52.074;5.126;2023-08-31T15:12:15;4.35;;;1.08;;